Time;durP1;ratioP1;P1;durP2;ratioP2;P2;SDS_P1;SDS_P2;PMS_P1;PMS_P2;Temp;Humidity;BMP_temperature;BMP_pressure;BME280_temperature;BME280_humidity;BME280_pressure;Samples;Min_cycle;Max_cycle;Signal;HPM_P1;HPM_P2
2023/04/27 00:03:34;;;;;;;7.87;4.07;;;;;5.90;96391.00;;;;8323139;28;20238;-75
2023/04/27 00:07:40;;;;;;;8.67;3.90;;;;;5.90;96391.00;;;;8322696;28;20208;-77
2023/04/27 00:11:42;;;;;;;11.17;4.07;;;;;6.00;96391.00;;;;8310389;28;20211;-78
2023/04/27 00:15:47;;;;;;;4.63;4.13;;;;;6.00;96389.00;;;;8319226;28;20311;-76
2023/04/27 00:19:52;;;;;;;8.20;4.43;;;;;6.00;96391.00;;;;8317920;28;20204;-77
2023/04/27 00:23:56;;;;;;;5.53;4.07;;;;;6.00;96397.00;;;;8320338;28;20256;-76
2023/04/27 00:28:03;;;;;;;6.03;3.70;;;;;5.90;96383.00;;;;8315859;28;20769;-77
2023/04/27 00:32:06;;;;;;;9.97;4.50;;;;;5.90;96386.00;;;;8316844;28;20207;-75
2023/04/27 00:36:10;;;;;;;8.77;4.23;;;;;5.90;96386.00;;;;8319892;28;20204;-75
2023/04/27 00:40:13;;;;;;;5.80;3.90;;;;;5.90;96388.00;;;;8321981;28;20670;-75
2023/04/27 00:44:23;;;;;;;6.87;4.30;;;;;5.90;96392.00;;;;8319537;28;20256;-75
2023/04/27 00:48:29;;;;;;;6.30;3.97;;;;;5.90;96385.00;;;;8317251;28;20313;-75
2023/04/27 00:52:35;;;;;;;7.00;4.13;;;;;5.90;96389.00;;;;8310250;28;20202;-75
2023/04/27 00:56:38;;;;;;;6.27;4.70;;;;;5.90;96382.00;;;;8316660;28;20216;-75
2023/04/27 01:00:41;;;;;;;8.27;4.60;;;;;5.90;96376.00;;;;8316858;28;20209;-75
2023/04/27 01:04:45;;;;;;;8.83;4.53;;;;;6.00;96386.00;;;;8316093;28;20244;-75
2023/04/27 01:08:55;;;;;;;10.80;5.27;;;;;5.90;96376.00;;;;8318601;28;20224;-75
2023/04/27 01:13:02;;;;;;;9.17;4.83;;;;;5.90;96372.00;;;;8316618;28;20202;-76
2023/04/27 01:17:05;;;;;;;9.50;4.70;;;;;5.90;96373.00;;;;8314255;28;20669;-74
2023/04/27 01:21:10;;;;;;;9.00;4.63;;;;;5.80;96361.00;;;;8304425;28;20205;-75
2023/04/27 01:25:18;;;;;;;7.67;4.50;;;;;5.70;96366.00;;;;8306202;28;20236;-77
2023/04/27 01:29:22;;;;;;;10.93;4.13;;;;;5.70;96364.00;;;;8309320;28;20205;-75
2023/04/27 01:33:25;;;;;;;8.87;4.80;;;;;5.70;96371.00;;;;8302958;28;20281;-76
2023/04/27 01:37:31;;;;;;;10.93;4.20;;;;;5.70;96368.00;;;;8306924;28;20204;-74
2023/04/27 01:41:36;;;;;;;5.67;3.97;;;;;5.70;96369.00;;;;8311981;28;20591;-73
2023/04/27 01:45:39;;;;;;;9.03;4.50;;;;;5.60;96371.00;;;;8309242;28;20547;-75
2023/04/27 01:49:42;;;;;;;6.83;4.10;;;;;5.60;96379.00;;;;8306908;28;20206;-76
2023/04/27 01:53:49;;;;;;;5.10;4.30;;;;;5.60;96382.00;;;;8319232;28;20198;-75
2023/04/27 01:57:54;;;;;;;7.80;5.10;;;;;5.60;96378.00;;;;8317211;28;20277;-74
2023/04/27 02:02:00;;;;;;;8.53;4.67;;;;;5.50;96384.00;;;;8308861;28;20210;-75
2023/04/27 02:06:04;;;;;;;6.83;4.40;;;;;5.50;96381.00;;;;8308627;28;20208;-74
2023/04/27 02:10:08;;;;;;;6.13;4.33;;;;;5.50;96389.00;;;;8312424;28;20786;-75
2023/04/27 02:14:13;;;;;;;6.47;4.60;;;;;5.40;96385.00;;;;8319815;28;20209;-74
2023/04/27 02:18:17;;;;;;;7.67;4.07;;;;;5.40;96383.00;;;;8317370;28;20198;-76
2023/04/27 02:22:23;;;;;;;7.27;4.50;;;;;5.40;96379.00;;;;8319654;28;20622;-76
2023/04/27 02:26:29;;;;;;;5.53;4.10;;;;;5.40;96398.00;;;;8317142;28;20607;-77
2023/04/27 02:30:34;;;;;;;10.40;4.10;;;;;5.40;96393.00;;;;8319619;28;20639;-76
2023/04/27 02:34:39;;;;;;;10.03;4.33;;;;;5.30;96385.00;;;;8318534;28;20208;-75
2023/04/27 02:38:42;;;;;;;5.10;4.03;;;;;5.30;96390.00;;;;8316240;28;20266;-74
2023/04/27 02:42:48;;;;;;;5.77;4.07;;;;;5.20;96389.00;;;;8319018;28;20231;-77
2023/04/27 02:46:54;;;;;;;10.10;4.40;;;;;5.20;96396.00;;;;8316417;28;20910;-77
2023/04/27 02:50:57;;;;;;;10.90;4.07;;;;;5.20;96389.00;;;;8318240;28;20291;-76
2023/04/27 02:55:02;;;;;;;5.07;4.23;;;;;5.20;96391.00;;;;8315058;28;20200;-74
2023/04/27 02:59:07;;;;;;;9.07;4.50;;;;;5.20;96389.00;;;;8317825;28;20200;-74
2023/04/27 03:03:17;;;;;;;8.37;4.90;;;;;5.10;96399.00;;;;8345147;22;20235;-77
2023/04/27 03:07:21;;;;;;;5.80;4.00;;;;;5.00;96389.00;;;;8306845;28;20200;-76
2023/04/27 03:11:26;;;;;;;6.73;3.80;;;;;4.90;96396.00;;;;8319305;28;20203;-76
2023/04/27 03:15:32;;;;;;;5.90;4.47;;;;;4.80;96391.00;;;;8322842;28;20710;-74
2023/04/27 03:19:40;;;;;;;7.47;4.27;;;;;4.70;96387.00;;;;8324283;28;20207;-76
2023/04/27 03:23:48;;;;;;;6.13;4.43;;;;;4.60;96388.00;;;;8327814;28;20577;-76
2023/04/27 03:27:51;;;;;;;6.87;4.07;;;;;4.60;96395.00;;;;8327630;28;20283;-75
2023/04/27 03:31:54;;;;;;;5.10;4.00;;;;;4.50;96403.00;;;;8325260;28;20259;-74
2023/04/27 03:36:01;;;;;;;7.70;4.00;;;;;4.40;96406.00;;;;8327647;28;20250;-74
2023/04/27 03:40:08;;;;;;;11.23;4.63;;;;;4.30;96404.00;;;;8324678;28;20551;-77
2023/04/27 03:44:15;;;;;;;8.60;4.63;;;;;4.20;96403.00;;;;8325379;28;20630;-77
2023/04/27 03:48:21;;;;;;;8.73;4.17;;;;;4.10;96399.00;;;;8308200;28;20208;-76
2023/04/27 03:52:30;;;;;;;7.80;4.40;;;;;4.00;96414.00;;;;8316343;28;20254;-75
2023/04/27 03:56:33;;;;;;;6.60;4.47;;;;;3.90;96416.00;;;;8318304;28;20201;-74
2023/04/27 04:00:39;;;;;;;10.60;4.93;;;;;3.80;96418.00;;;;8322084;28;20250;-71
2023/04/27 04:04:46;;;;;;;9.83;4.90;;;;;3.80;96428.00;;;;8290952;28;20228;-75
2023/04/27 04:08:51;;;;;;;7.23;4.53;;;;;3.70;96427.00;;;;8290125;28;20208;-76
2023/04/27 04:12:57;;;;;;;9.93;4.03;;;;;3.70;96424.00;;;;8287911;28;20271;-76
2023/04/27 04:17:00;;;;;;;6.03;4.00;;;;;3.80;96432.00;;;;8288432;28;20619;-75
2023/04/27 04:21:03;;;;;;;6.97;4.87;;;;;3.80;96434.00;;;;8271537;28;20206;-76
2023/04/27 04:25:13;;;;;;;8.87;4.50;;;;;3.80;96435.00;;;;8289216;28;20239;-75
2023/04/27 04:29:29;;;;;;;8.93;4.57;;;;;3.90;96427.00;;;;8294791;28;20621;-76
2023/04/27 04:33:32;;;;;;;6.30;4.63;;;;;3.90;96447.00;;;;8282979;28;20199;-74
2023/04/27 04:37:39;;;;;;;7.87;4.60;;;;;4.00;96452.00;;;;8293711;28;20700;-76
2023/04/27 04:41:44;;;;;;;13.50;6.73;;;;;4.10;96457.00;;;;8288624;28;20255;-73
2023/04/27 04:45:47;;;;;;;7.80;4.87;;;;;4.30;96450.00;;;;8292125;28;20231;-77
2023/04/27 04:49:53;;;;;;;11.53;4.53;;;;;4.40;96450.00;;;;8295448;28;21040;-76
2023/04/27 04:53:56;;;;;;;7.83;4.43;;;;;4.50;96453.00;;;;8286092;28;20195;-77
2023/04/27 04:58:03;;;;;;;6.03;4.33;;;;;4.60;96451.00;;;;8290153;28;20204;-76
2023/04/27 05:02:07;;;;;;;7.70;4.67;;;;;4.70;96452.00;;;;8288668;28;20260;-75
2023/04/27 05:06:11;;;;;;;11.53;4.30;;;;;4.90;96453.00;;;;8289754;28;20620;-77
2023/04/27 05:10:14;;;;;;;6.37;4.30;;;;;5.10;96451.00;;;;8289055;28;20208;-77
2023/04/27 05:14:21;;;;;;;7.53;4.43;;;;;5.30;96452.00;;;;8284834;28;20200;-75
2023/04/27 05:18:26;;;;;;;9.57;4.50;;;;;5.50;96456.00;;;;8288503;28;20245;-77
2023/04/27 05:22:31;;;;;;;7.87;4.97;;;;;5.70;96457.00;;;;8290355;28;20287;-77
2023/04/27 05:26:36;;;;;;;13.97;4.53;;;;;5.90;96462.00;;;;8287086;28;20268;-77
2023/04/27 05:30:41;;;;;;;10.57;6.27;;;;;6.10;96457.00;;;;8293331;28;20295;-72
2023/04/27 05:34:44;;;;;;;8.13;4.33;;;;;6.30;96467.00;;;;8287453;28;20212;-74
2023/04/27 05:38:51;;;;;;;8.53;5.17;;;;;6.60;96468.00;;;;8292702;28;20204;-75
2023/04/27 05:42:54;;;;;;;5.60;4.70;;;;;7.00;96476.00;;;;8289937;28;20304;-74
2023/04/27 05:47:01;;;;;;;7.53;4.53;;;;;7.20;96472.00;;;;8289616;28;20236;-74
2023/04/27 05:51:10;;;;;;;7.40;4.00;;;;;7.40;96475.00;;;;8288033;28;20244;-75
2023/04/27 05:55:13;;;;;;;7.23;4.17;;;;;7.60;96484.00;;;;8291218;28;20202;-74
2023/04/27 05:59:16;;;;;;;6.43;3.80;;;;;7.80;96479.00;;;;8285981;28;20191;-75
2023/04/27 06:03:25;;;;;;;6.43;3.87;;;;;8.00;96486.00;;;;8287225;28;20574;-75
2023/04/27 06:07:30;;;;;;;8.30;4.43;;;;;8.30;96487.00;;;;8287939;28;20205;-75
2023/04/27 06:11:34;;;;;;;7.40;3.93;;;;;8.70;96489.00;;;;8286800;28;20651;-74
2023/04/27 06:15:37;;;;;;;8.97;4.40;;;;;9.10;96494.00;;;;8286394;28;20202;-74
2023/04/27 06:19:44;;;;;;;8.53;4.07;;;;;9.40;96494.00;;;;8286930;28;20289;-75
2023/04/27 06:23:48;;;;;;;6.60;3.80;;;;;9.80;96502.00;;;;8262488;28;20226;-74
2023/04/27 06:27:51;;;;;;;5.70;4.17;;;;;10.00;96506.00;;;;8263755;28;20207;-75
2023/04/27 06:31:54;;;;;;;11.50;4.50;;;;;10.30;96506.00;;;;8279031;28;20767;-75
2023/04/27 06:36:00;;;;;;;12.63;4.40;;;;;10.60;96509.00;;;;8289704;28;20210;-75
2023/04/27 06:40:05;;;;;;;7.60;4.00;;;;;10.90;96516.00;;;;8267687;28;20207;-73
2023/04/27 06:44:08;;;;;;;12.57;4.43;;;;;11.10;96510.00;;;;8266710;28;20276;-74
2023/04/27 06:48:12;;;;;;;6.10;4.23;;;;;11.40;96508.00;;;;8280752;28;20548;-75
2023/04/27 06:52:17;;;;;;;5.05;4.28;;;;;11.80;96513.00;;;;8277242;28;20290;-75
2023/04/27 06:56:22;;;;;;;9.55;5.13;;;;;12.10;96515.00;;;;8292538;28;20203;-75
2023/04/27 07:00:26;;;;;;;10.02;4.47;;;;;12.30;96521.00;;;;8295827;28;20202;-76
2023/04/27 07:04:30;;;;;;;7.05;3.90;;;;;12.50;96527.00;;;;8293984;28;20230;-73
2023/04/27 07:08:35;;;;;;;7.18;3.70;;;;;12.60;96529.00;;;;8293297;28;20197;-74
2023/04/27 07:12:40;;;;;;;5.60;4.07;;;;;12.80;96529.00;;;;8275058;28;20972;-75
2023/04/27 07:16:43;;;;;;;9.25;4.32;;;;;13.10;96525.00;;;;8291104;28;20193;-75
2023/04/27 07:20:47;;;;;;;9.20;3.67;;;;;13.30;96519.00;;;;8292566;28;20198;-76
2023/04/27 07:24:56;;;;;;;5.72;3.47;;;;;13.50;96516.00;;;;8297011;28;20868;-74
2023/04/27 07:29:02;;;;;;;3.97;3.20;;;;;13.80;96522.00;;;;8290617;28;20207;-72
2023/04/27 07:33:25;;;;;;;8.88;3.40;;;;;14.00;96522.00;;;;8293537;28;20197;-76
2023/04/27 07:37:32;;;;;;;9.27;4.10;;;;;14.20;96523.00;;;;8293010;28;20559;-72
2023/04/27 07:41:36;;;;;;;9.23;3.78;;;;;14.50;96522.00;;;;8288136;28;20213;-75
2023/04/27 07:45:42;;;;;;;8.45;3.33;;;;;14.80;96520.00;;;;8291625;28;20315;-75
2023/04/27 07:49:46;;;;;;;7.10;3.40;;;;;15.20;96519.00;;;;8291154;28;20206;-75
2023/04/27 07:53:49;;;;;;;8.55;3.40;;;;;15.60;96526.00;;;;8291369;28;20243;-75
2023/04/27 07:58:06;;;;;;;5.40;3.45;;;;;16.00;96532.00;;;;8274319;28;20273;-73
2023/04/27 08:02:10;;;;;;;7.60;3.08;;;;;16.20;96543.00;;;;8293449;28;20236;-75
2023/04/27 08:06:19;;;;;;;6.07;2.90;;;;;16.40;96540.00;;;;8293901;28;20230;-74
2023/04/27 08:10:23;;;;;;;4.63;2.80;;;;;16.70;96546.00;;;;8295267;28;20205;-74
2023/04/27 08:14:31;;;;;;;6.85;2.53;;;;;16.90;96537.00;;;;8290524;28;20193;-74
2023/04/27 08:18:40;;;;;;;8.90;3.15;;;;;16.90;96545.00;;;;8298441;28;20203;-76
2023/04/27 08:22:44;;;;;;;7.22;3.10;;;;;17.10;96543.00;;;;8290136;28;20197;-75
2023/04/27 08:26:49;;;;;;;8.27;3.10;;;;;17.30;96552.00;;;;8271111;28;20281;-74
2023/04/27 08:30:54;;;;;;;6.50;3.13;;;;;17.40;96551.00;;;;8306554;28;20201;-76
2023/04/27 08:34:58;;;;;;;5.53;2.95;;;;;17.70;96556.00;;;;8291893;28;20787;-74
2023/04/27 08:39:04;;;;;;;5.38;3.05;;;;;18.00;96552.00;;;;8298777;28;20264;-76
2023/04/27 08:43:08;;;;;;;5.40;3.00;;;;;18.40;96549.00;;;;8300924;28;20213;-74
2023/04/27 08:47:12;;;;;;;6.28;3.10;;;;;18.70;96551.00;;;;8310629;28;20617;-73
2023/04/27 08:51:16;;;;;;;4.32;3.28;;;;;19.00;96546.00;;;;8288651;28;20202;-75
2023/04/27 08:55:20;;;;;;;6.43;2.90;;;;;19.30;96558.00;;;;8301499;28;20202;-73
2023/04/27 08:59:23;;;;;;;9.73;3.10;;;;;19.70;96554.00;;;;8266602;28;20650;-75
2023/04/27 09:03:27;;;;;;;11.93;3.30;;;;;20.30;96556.00;;;;8293597;28;20226;-75
2023/04/27 09:07:31;;;;;;;4.28;2.65;;;;;20.50;96560.00;;;;8290165;28;20233;-75
2023/04/27 09:11:36;;;;;;;7.00;3.33;;;;;20.60;96561.00;;;;8289202;28;20206;-75
2023/04/27 09:15:44;;;;;;;7.15;2.97;;;;;20.50;96566.00;;;;8291268;28;20535;-75
2023/04/27 09:19:51;;;;;;;7.05;2.97;;;;;20.30;96563.00;;;;8289710;28;20297;-75
2023/04/27 09:23:56;;;;;;;7.65;3.38;;;;;20.30;96560.00;;;;8288620;28;20191;-75
2023/04/27 09:28:00;;;;;;;5.72;3.10;;;;;20.50;96562.00;;;;8288626;28;20225;-74
2023/04/27 09:32:13;;;;;;;6.82;3.70;;;;;20.70;96556.00;;;;8291038;28;20198;-75
2023/04/27 09:36:23;;;;;;;5.78;3.40;;;;;20.80;96556.00;;;;8291310;28;20205;-75
2023/04/27 09:40:30;;;;;;;11.30;3.28;;;;;21.30;96552.00;;;;8284220;28;20260;-74
2023/04/27 09:44:34;;;;;;;8.77;3.47;;;;;21.80;96543.00;;;;8282507;28;20256;-75
2023/04/27 09:48:39;;;;;;;4.60;2.85;;;;;22.00;96546.00;;;;8290068;28;20868;-74
2023/04/27 09:52:45;;;;;;;3.92;2.90;;;;;22.50;96545.00;;;;8288986;28;20563;-74
2023/04/27 09:56:55;;;;;;;5.30;2.97;;;;;22.90;96538.00;;;;8287452;28;20233;-75
2023/04/27 10:01:10;;;;;;;4.22;2.70;;;;;22.80;96535.00;;;;8288645;28;20272;-74
2023/04/27 10:05:30;;;;;;;4.68;2.75;;;;;23.10;96532.00;;;;8291157;28;20269;-75
2023/04/27 10:09:41;;;;;;;4.60;2.67;;;;;23.30;96529.00;;;;8290990;28;20237;-75
2023/04/27 10:13:54;;;;;;;6.68;2.80;;;;;22.90;96523.00;;;;8289435;28;20206;-75
2023/04/27 10:18:04;;;;;;;5.93;2.90;;;;;22.30;96527.00;;;;8291893;28;20863;-74
2023/04/27 10:22:10;;;;;;;4.95;2.72;;;;;22.50;96526.00;;;;8288409;28;20195;-73
2023/04/27 10:26:22;;;;;;;4.90;2.55;;;;;22.40;96520.00;;;;8288400;28;20356;-75
2023/04/27 10:30:27;;;;;;;6.03;2.90;;;;;22.70;96524.00;;;;8292109;28;20702;-75
2023/04/27 10:34:35;;;;;;;9.23;2.92;;;;;22.90;96511.00;;;;8291451;28;20208;-75
2023/04/27 10:38:40;;;;;;;5.22;3.15;;;;;22.60;96515.00;;;;8290240;28;20190;-75
2023/04/27 10:42:48;;;;;;;5.47;2.85;;;;;22.70;96520.00;;;;8289701;28;20741;-75
2023/04/27 10:46:52;;;;;;;4.38;2.42;;;;;22.50;96516.00;;;;8288255;28;20308;-75
2023/04/27 10:50:56;;;;;;;6.65;2.75;;;;;22.40;96509.00;;;;8288961;28;20202;-74
2023/04/27 10:55:13;;;;;;;3.70;2.45;;;;;23.50;96502.00;;;;8286326;28;20232;-74
2023/04/27 10:59:20;;;;;;;6.95;3.08;;;;;24.40;96501.00;;;;8283874;28;20194;-74
2023/04/27 11:03:25;;;;;;;5.70;3.33;;;;;25.20;96505.00;;;;8288034;28;20248;-74
2023/04/27 11:07:28;;;;;;;10.27;3.03;;;;;25.60;96493.00;;;;8293770;28;20725;-74
2023/04/27 11:11:32;;;;;;;6.43;2.42;;;;;25.70;96502.00;;;;8290419;28;20281;-74
2023/04/27 11:15:45;;;;;;;4.78;2.80;;;;;26.10;96505.00;;;;8286776;28;20707;-75
2023/04/27 11:19:49;;;;;;;4.95;2.45;;;;;26.00;96499.00;;;;8287070;28;20837;-75
2023/04/27 11:23:53;;;;;;;3.95;2.67;;;;;25.60;96490.00;;;;8286727;28;20203;-75
2023/04/27 11:27:56;;;;;;;4.47;2.50;;;;;25.30;96502.00;;;;8286631;28;20238;-74
2023/04/27 11:32:01;;;;;;;5.80;2.80;;;;;24.80;96496.00;;;;8286330;28;20202;-75
2023/04/27 11:36:15;;;;;;;4.88;2.35;;;;;25.70;96502.00;;;;8287682;28;20225;-75
2023/04/27 11:40:18;;;;;;;5.50;2.50;;;;;26.60;96506.00;;;;8286479;28;20198;-75
2023/04/27 11:44:28;;;;;;;3.50;2.47;;;;;26.60;96505.00;;;;8292035;28;20228;-74
2023/04/27 11:48:33;;;;;;;4.47;2.60;;;;;27.00;96499.00;;;;8292399;28;20206;-74
2023/04/27 11:52:37;;;;;;;6.00;3.05;;;;;27.50;96498.00;;;;8291714;28;20224;-75
2023/04/27 11:56:41;;;;;;;4.07;2.40;;;;;27.80;96504.00;;;;8291638;28;20210;-75
2023/04/27 12:00:46;;;;;;;7.78;2.30;;;;;27.30;96507.00;;;;8292230;28;20693;-75
2023/04/27 12:04:52;;;;;;;5.47;2.45;;;;;26.30;96510.00;;;;8301885;28;20198;-75
2023/04/27 12:08:59;;;;;;;4.15;2.35;;;;;25.70;96501.00;;;;8283481;28;20326;-74
2023/04/27 12:13:04;;;;;;;5.97;2.45;;;;;25.20;96492.00;;;;8301833;28;20260;-75
2023/04/27 12:17:09;;;;;;;5.63;2.63;;;;;24.70;96499.00;;;;8301247;28;20206;-75
2023/04/27 12:21:14;;;;;;;5.32;2.85;;;;;24.40;96497.00;;;;8300276;28;20253;-75
2023/04/27 12:25:18;;;;;;;4.95;3.30;;;;;23.70;96503.00;;;;8300947;28;20202;-75
2023/04/27 12:29:25;;;;;;;5.93;3.22;;;;;22.70;96500.00;;;;8299955;28;20313;-75
2023/04/27 12:33:31;;;;;;;4.05;2.63;;;;;21.90;96494.00;;;;8301212;28;20203;-74
2023/04/27 12:37:36;;;;;;;4.43;2.35;;;;;21.90;96480.00;;;;8300751;28;20202;-74
2023/04/27 12:41:41;;;;;;;3.95;2.75;;;;;21.90;96490.00;;;;8302151;28;20649;-74
2023/04/27 12:45:44;;;;;;;4.68;2.67;;;;;22.10;96503.00;;;;8300765;28;20563;-74
2023/04/27 12:49:55;;;;;;;7.38;3.13;;;;;22.30;96494.00;;;;8299367;28;20205;-74
2023/04/27 12:53:59;;;;;;;8.18;2.88;;;;;22.50;96488.00;;;;8301071;28;20604;-75
2023/04/27 12:58:06;;;;;;;3.80;2.63;;;;;22.70;96491.00;;;;8300167;28;20229;-74
2023/04/27 13:02:11;;;;;;;8.32;2.40;;;;;22.60;96486.00;;;;8296506;28;20232;-74
2023/04/27 13:06:22;;;;;;;5.75;3.08;;;;;22.40;96491.00;;;;8289302;28;20229;-73
2023/04/27 13:10:35;;;;;;;4.60;2.60;;;;;22.10;96474.00;;;;8289654;28;20213;-73
2023/04/27 13:14:39;;;;;;;5.03;2.67;;;;;22.20;96489.00;;;;8272176;28;20202;-74
2023/04/27 13:18:48;;;;;;;4.32;2.67;;;;;22.20;96489.00;;;;8291143;28;20194;-73
2023/04/27 13:22:53;;;;;;;6.35;2.47;;;;;22.30;96487.00;;;;8289716;28;20336;-74
2023/04/27 13:26:58;;;;;;;5.85;3.08;;;;;22.00;96480.00;;;;8286745;28;20309;-73
2023/04/27 13:31:09;;;;;;;5.68;2.45;;;;;21.50;96477.00;;;;8294046;28;20640;-73
2023/04/27 13:35:13;;;;;;;6.65;2.45;;;;;21.60;96484.00;;;;8289034;28;20202;-74
2023/04/27 13:39:16;;;;;;;4.60;2.35;;;;;21.70;96477.00;;;;8290745;28;20215;-74
2023/04/27 13:43:23;;;;;;;5.07;2.67;;;;;22.10;96476.00;;;;8290367;28;20198;-73
2023/04/27 13:47:28;;;;;;;5.22;2.38;;;;;22.30;96470.00;;;;8288340;28;20241;-75
2023/04/27 13:51:33;;;;;;;8.68;2.78;;;;;22.50;96462.00;;;;8289049;28;20244;-75
2023/04/27 13:55:40;;;;;;;4.78;3.13;;;;;23.20;96467.00;;;;8271076;28;20781;-75
2023/04/27 13:59:44;;;;;;;4.93;2.95;;;;;23.90;96473.00;;;;8288429;28;20341;-76
2023/04/27 14:03:47;;;;;;;5.22;2.97;;;;;24.00;96473.00;;;;8290404;28;20807;-75
2023/04/27 14:07:52;;;;;;;7.28;3.33;;;;;23.70;96463.00;;;;8290483;28;20252;-72
2023/04/27 14:11:58;;;;;;;6.63;2.72;;;;;24.00;96461.00;;;;8270705;28;20206;-73
2023/04/27 14:16:03;;;;;;;4.65;2.63;;;;;24.40;96449.00;;;;8288684;28;20194;-71
2023/04/27 14:20:08;;;;;;;7.07;2.65;;;;;24.90;96446.00;;;;8288873;28;20198;-74
2023/04/27 14:24:13;;;;;;;3.85;3.00;;;;;24.90;96456.00;;;;8289055;28;20610;-75
2023/04/27 14:28:16;;;;;;;3.15;2.72;;;;;24.40;96444.00;;;;8287665;28;20229;-75
2023/04/27 14:32:26;;;;;;;8.48;2.60;;;;;24.50;96441.00;;;;8287591;28;20202;-75
2023/04/27 14:36:30;;;;;;;4.80;2.65;;;;;24.40;96439.00;;;;8286741;28;20609;-72
2023/04/27 14:40:38;;;;;;;7.00;2.70;;;;;23.60;96450.00;;;;8288140;28;20221;-73
2023/04/27 14:44:41;;;;;;;4.65;2.50;;;;;23.00;96448.00;;;;8287955;28;20799;-75
2023/04/27 14:48:46;;;;;;;2.97;2.53;;;;;23.00;96446.00;;;;8287691;28;20226;-75
2023/04/27 14:52:49;;;;;;;10.00;2.95;;;;;23.20;96444.00;;;;8292607;28;20193;-75
2023/04/27 14:56:55;;;;;;;3.83;2.67;;;;;23.60;96447.00;;;;8295452;28;20209;-74
2023/04/27 15:01:01;;;;;;;3.42;2.38;;;;;23.70;96452.00;;;;8287871;28;20206;-75
2023/04/27 15:05:06;;;;;;;3.78;2.40;;;;;23.50;96449.00;;;;8305118;28;20205;-74
2023/04/27 15:09:10;;;;;;;4.53;3.03;;;;;23.00;96455.00;;;;8293348;28;20335;-74
2023/04/27 15:13:16;;;;;;;3.97;2.95;;;;;22.60;96452.00;;;;8296691;28;20264;-74
2023/04/27 15:17:22;;;;;;;4.00;2.40;;;;;22.60;96452.00;;;;8296423;28;20285;-73
2023/04/27 15:21:27;;;;;;;6.75;2.70;;;;;22.30;96451.00;;;;8303709;28;20210;-73
2023/04/27 15:25:30;;;;;;;3.35;2.33;;;;;22.40;96447.00;;;;8297619;28;20198;-73
2023/04/27 15:29:33;;;;;;;3.80;2.45;;;;;23.10;96450.00;;;;8296342;28;20679;-74
2023/04/27 15:33:36;;;;;;;5.25;2.30;;;;;23.70;96452.00;;;;8277651;28;20242;-74
2023/04/27 15:37:43;;;;;;;5.47;2.55;;;;;23.30;96453.00;;;;8292828;28;20268;-75
2023/04/27 15:41:46;;;;;;;4.93;2.58;;;;;22.90;96448.00;;;;8295917;28;20788;-74
2023/04/27 15:45:52;;;;;;;4.47;2.60;;;;;23.20;96441.00;;;;8288943;28;20205;-74
2023/04/27 15:49:55;;;;;;;4.55;2.63;;;;;23.60;96437.00;;;;8288885;28;20233;-73
2023/04/27 15:54:01;;;;;;;3.85;2.20;;;;;23.70;96439.00;;;;8292487;28;20198;-72
2023/04/27 15:58:05;;;;;;;5.55;2.45;;;;;23.70;96441.00;;;;8293956;28;20229;-72
2023/04/27 16:02:10;;;;;;;2.90;2.70;;;;;23.50;96435.00;;;;8290478;28;20217;-73
2023/04/27 16:06:15;;;;;;;2.85;2.47;;;;;23.40;96431.00;;;;8292070;28;20198;-73
2023/04/27 16:10:19;;;;;;;5.00;2.80;;;;;23.00;96430.00;;;;8291557;28;20221;-71
2023/04/27 16:14:23;;;;;;;3.83;2.50;;;;;22.70;96421.00;;;;8291679;28;20620;-72
2023/04/27 16:18:29;;;;;;;6.07;2.60;;;;;22.40;96417.00;;;;8291093;28;20245;-72
2023/04/27 16:22:33;;;;;;;3.35;2.30;;;;;22.10;96423.00;;;;8291642;28;20856;-73
2023/04/27 16:26:38;;;;;;;5.40;2.45;;;;;21.70;96414.00;;;;8289963;28;20206;-72
2023/04/27 16:30:48;;;;;;;5.85;2.50;;;;;21.70;96416.00;;;;8290106;28;20234;-73
2023/04/27 16:34:54;;;;;;;7.85;2.70;;;;;22.10;96414.00;;;;8293552;28;20198;-73
2023/04/27 16:38:59;;;;;;;4.07;2.85;;;;;22.50;96410.00;;;;8290048;28;20249;-72
2023/04/27 16:43:03;;;;;;;5.93;2.55;;;;;23.30;96413.00;;;;8290507;28;20237;-70
2023/04/27 16:47:06;;;;;;;7.60;2.80;;;;;24.20;96409.00;;;;8289828;28;20209;-72
2023/04/27 16:51:10;;;;;;;4.70;3.10;;;;;24.90;96410.00;;;;8290688;28;20872;-71
2023/04/27 16:55:13;;;;;;;4.00;2.70;;;;;24.30;96414.00;;;;8289704;28;20293;-70
2023/04/27 16:59:18;;;;;;;8.15;3.08;;;;;23.50;96415.00;;;;8290415;28;21014;-70
2023/04/27 17:03:24;;;;;;;4.25;3.10;;;;;22.80;96416.00;;;;8290163;28;20222;-70
2023/04/27 17:07:31;;;;;;;4.65;2.88;;;;;22.20;96415.00;;;;8289742;28;20240;-72
2023/04/27 17:11:35;;;;;;;10.82;3.05;;;;;21.80;96404.00;;;;8288886;28;20264;-71
2023/04/27 17:15:40;;;;;;;3.97;2.97;;;;;21.80;96408.00;;;;8290354;28;20206;-70
2023/04/27 17:19:45;;;;;;;4.95;3.10;;;;;21.60;96405.00;;;;8289042;28;20210;-71
2023/04/27 17:23:52;;;;;;;4.18;3.00;;;;;21.50;96409.00;;;;8289542;28;20198;-71
2023/04/27 17:27:55;;;;;;;5.93;2.88;;;;;21.60;96409.00;;;;8274784;28;20619;-71
2023/04/27 17:32:02;;;;;;;5.88;2.60;;;;;21.30;96407.00;;;;8289508;28;20260;-71
2023/04/27 17:36:07;;;;;;;6.43;2.70;;;;;20.80;96410.00;;;;8289103;28;20649;-71
2023/04/27 17:40:12;;;;;;;5.47;2.83;;;;;20.30;96410.00;;;;8287582;28;20197;-71
2023/04/27 17:44:17;;;;;;;6.22;2.90;;;;;19.90;96411.00;;;;8288057;28;20636;-71
2023/04/27 17:48:22;;;;;;;2.80;2.38;;;;;19.50;96412.00;;;;8287066;28;20249;-71
2023/04/27 17:52:28;;;;;;;6.57;2.90;;;;;19.20;96405.00;;;;8288166;28;20213;-71
2023/04/27 17:56:32;;;;;;;7.95;3.80;;;;;18.70;96401.00;;;;8288266;28;20729;-71
2023/04/27 18:00:36;;;;;;;13.43;4.28;;;;;18.30;96401.00;;;;8287790;28;20244;-71
2023/04/27 18:04:53;;;;;;;6.93;3.95;;;;;17.90;96401.00;;;;8285849;28;20229;-71
2023/04/27 18:08:57;;;;;;;5.47;3.80;;;;;17.40;96401.00;;;;8282784;28;20230;-70
2023/04/27 18:13:00;;;;;;;8.60;3.75;;;;;17.10;96401.00;;;;8287598;28;20202;-70
2023/04/27 18:17:05;;;;;;;5.50;3.63;;;;;16.90;96398.00;;;;8292640;28;20575;-71
2023/04/27 18:21:09;;;;;;;6.50;3.40;;;;;16.60;96404.00;;;;8287842;28;20280;-71
2023/04/27 18:25:13;;;;;;;9.10;3.67;;;;;16.40;96408.00;;;;8288932;28;20193;-71
2023/04/27 18:29:22;;;;;;;6.35;4.05;;;;;16.30;96410.00;;;;8287989;28;20229;-70
2023/04/27 18:33:28;;;;;;;9.93;5.40;;;;;16.10;96406.00;;;;8287959;28;20195;-71
2023/04/27 18:37:33;;;;;;;6.07;4.13;;;;;15.90;96409.00;;;;8287201;28;20214;-71
2023/04/27 18:41:38;;;;;;;8.13;3.92;;;;;15.70;96412.00;;;;8282100;28;20252;-71
2023/04/27 18:45:45;;;;;;;6.65;4.25;;;;;15.40;96404.00;;;;8288234;28;20297;-71
2023/04/27 18:49:48;;;;;;;7.30;4.95;;;;;15.20;96411.00;;;;8286978;28;20225;-71
2023/04/27 18:53:56;;;;;;;8.25;4.90;;;;;14.90;96416.00;;;;8271528;28;20194;-70
2023/04/27 18:58:02;;;;;;;10.77;4.60;;;;;14.60;96416.00;;;;8295887;28;20623;-72
2023/04/27 19:02:06;;;;;;;7.40;4.90;;;;;14.40;96414.00;;;;8279987;28;20287;-71
2023/04/27 19:06:09;;;;;;;7.70;5.20;;;;;14.20;96424.00;;;;8293261;28;20209;-73
2023/04/27 19:10:17;;;;;;;13.70;5.75;;;;;14.10;96432.00;;;;8258504;28;20236;-73
2023/04/27 19:14:23;;;;;;;10.70;5.47;;;;;13.80;96432.00;;;;8290881;28;20292;-71
2023/04/27 19:18:29;;;;;;;12.55;5.13;;;;;13.60;96433.00;;;;8291275;28;20279;-72
2023/04/27 19:22:33;;;;;;;9.00;4.90;;;;;13.30;96439.00;;;;8289668;28;20289;-73
2023/04/27 19:26:38;;;;;;;7.55;5.60;;;;;13.00;96434.00;;;;8288859;28;20217;-74
2023/04/27 19:30:42;;;;;;;8.13;5.40;;;;;12.60;96430.00;;;;8292826;28;20751;-74
2023/04/27 19:34:49;;;;;;;9.50;5.13;;;;;12.20;96427.00;;;;8293143;28;20912;-73
2023/04/27 19:38:55;;;;;;;11.10;5.30;;;;;11.80;96431.00;;;;8286532;28;20204;-74
2023/04/27 19:43:02;;;;;;;11.05;5.88;;;;;11.50;96426.00;;;;8288467;28;20258;-74
2023/04/27 19:47:06;;;;;;;8.93;5.43;;;;;11.20;96425.00;;;;8288111;28;20245;-73
2023/04/27 19:51:12;;;;;;;8.27;5.28;;;;;10.80;96422.00;;;;8290885;28;20280;-73
2023/04/27 19:55:17;;;;;;;12.43;6.05;;;;;10.60;96418.00;;;;8290806;28;20209;-73
2023/04/27 19:59:27;;;;;;;8.68;4.88;;;;;10.40;96425.00;;;;8290156;28;20202;-76
2023/04/27 20:03:30;;;;;;;7.03;5.25;;;;;10.30;96414.00;;;;8310628;28;20262;-72
2023/04/27 20:07:34;;;;;;;9.82;5.13;;;;;10.20;96417.00;;;;8322911;28;20221;-74
2023/04/27 20:11:38;;;;;;;5.87;5.00;;;;;10.00;96413.00;;;;8308900;28;20226;-73
2023/04/27 20:15:43;;;;;;;14.20;5.70;;;;;9.90;96413.00;;;;8323921;28;20201;-73
2023/04/27 20:19:48;;;;;;;10.02;5.45;;;;;10.10;96413.00;;;;8324634;28;20644;-73
2023/04/27 20:23:58;;;;;;;11.15;5.10;;;;;10.20;96418.00;;;;8309829;28;20206;-73
2023/04/27 20:28:06;;;;;;;7.47;5.13;;;;;10.30;96413.00;;;;8316719;28;20197;-74
2023/04/27 20:32:12;;;;;;;10.80;5.23;;;;;10.30;96407.00;;;;8323868;28;20249;-74